An Run Da 2 — BHNX — position and weather

sailwx.info

Track history (hours):
 
Tides and Currents Weather Stations Pressure Air Temp Water Temp Dewpoint Dewpoint Depression Visibility Wind Speed Wind Dir Waves Ship Positions

An Run Da 2

Last reported at 2015-Feb-22 09:30 UTC. Time now 2015-Feb-27 22:48 UTC.
Position N 32°05' E 119°55'.

Length 147 m; draft 7.9 m.

Type: Cargo ship. MMSI: 413360230.

Date/timePositionNaut miles runAvg speedWind from/ knotsBaromVisibWave heightAir tempDewpointWater temp
2015-Feb-22 09:30N 32°05' E 119°55'8 8.5
2015-Feb-22 08:32N 31°58' E 120°01'18 2.6
2015-Feb-22 01:24N 32°00' E 120°23'0 0.1
2015-Feb-22 00:30N 32°00' E 120°23'0 0.1
2015-Feb-21 23:30N 32°00' E 120°23'0 0.0
2015-Feb-21 22:28N 32°00' E 120°23'0 0.0
2015-Feb-21 21:28N 32°00' E 120°23'0 0.0
2015-Feb-21 20:33N 32°00' E 120°23'0 0.2
2015-Feb-21 19:30N 32°00' E 120°23'0 0.0
2015-Feb-21 18:34N 32°00' E 120°23'0 0.0
2015-Feb-21 17:27N 32°00' E 120°23'0 0.0
2015-Feb-21 16:27N 32°00' E 120°23'0 0.0
2015-Feb-21 15:33N 32°00' E 120°23'0 0.0
2015-Feb-21 14:28N 32°00' E 120°23'0 0.0
2015-Feb-21 13:33N 32°00' E 120°23'0 0.0
2015-Feb-21 12:31N 32°00' E 120°23'0 0.2
2015-Feb-21 11:31N 32°00' E 120°23'0 0.0
2015-Feb-21 10:31N 32°00' E 120°23'0 0.0
2015-Feb-21 09:31N 32°00' E 120°23'0 0.0
2015-Feb-21 08:31N 32°00' E 120°23'0 0.2
2015-Feb-21 07:25N 32°00' E 120°23'0 0.0
2015-Feb-21 06:13N 32°00' E 120°23'0 0.0
2015-Feb-21 05:19N 32°00' E 120°23'0 0.0
2015-Feb-21 04:25N 32°00' E 120°23'0 0.1
2015-Feb-21 03:33N 32°00' E 120°23'3 3.5
2015-Feb-21 02:33N 32°03' E 120°26'6 6.3
2015-Feb-21 01:33N 32°03' E 120°33'7 6.6
2015-Feb-21 00:33N 31°60' E 120°40'8 7.7
2015-Feb-20 23:33N 32°00' E 120°49'9 8.5
2015-Feb-20 22:32N 31°53' E 120°54'7 7.5
2015-Feb-20 21:33N 31°47' E 120°59'9 9.2
2015-Feb-20 20:33N 31°42' E 121°08'1111.0
2015-Feb-20 19:33N 31°35' E 121°18'1111.1
2015-Feb-20 18:33N 31°28' E 121°28'10 9.8
2015-Feb-20 17:33N 31°22' E 121°37'1010.3
2015-Feb-20 16:33N 31°18' E 121°48'1111.3
2015-Feb-20 15:33N 31°15' E 122°01'9 9.2
2015-Feb-20 14:33N 31°11' E 122°11'6 5.3
2015-Feb-20 13:28N 31°08' E 122°16'0 0.1
2015-Feb-20 12:19N 31°08' E 122°17'3 4.5
2015-Feb-20 11:33N 31°06' E 122°20'11 4.9
2015-Feb-20 09:20N 31°14' E 122°28'0 0.0
2015-Feb-20 04:15N 31°15' E 122°28'0 0.0
2015-Feb-19 15:03N 31°15' E 122°28'0 0.0
2015-Feb-19 14:06N 31°15' E 122°28'0 0.0
2015-Feb-19 03:15N 31°15' E 122°28'0 0.0
2015-Feb-18 17:15N 31°15' E 122°29'0 0.0
2015-Feb-18 05:15N 31°15' E 122°29'0 0.1
2015-Feb-18 02:30N 31°15' E 122°28'0 0.1
2015-Feb-17 22:24N 31°14' E 122°28'0 0.1
2015-Feb-17 21:27N 31°14' E 122°28'0 0.0
2015-Feb-17 20:33N 31°14' E 122°28'0 0.0
2015-Feb-17 19:27N 31°14' E 122°29'0 0.1
2015-Feb-17 17:27N 31°15' E 122°29'0 0.1
2015-Feb-17 16:24N 31°15' E 122°28'0 0.0
2015-Feb-17 13:30N 31°15' E 122°28'0 0.0
2015-Feb-17 12:33N 31°15' E 122°28'0 0.1
2015-Feb-17 10:21N 31°14' E 122°28'0 0.1
2015-Feb-17 09:19N 31°15' E 122°28'11 6.3
2015-Feb-17 07:29N 31°04' E 122°33'15 7.7
2015-Feb-17 05:33N 30°51' E 122°24'10 9.9
2015-Feb-17 04:34N 30°43' E 122°17'10 9.7
2015-Feb-17 03:33N 30°34' E 122°12'9 8.8
2015-Feb-17 02:33N 30°29' E 122°05'8 7.7
2015-Feb-17 01:31N 30°25' E 121°57'7 7.4
2015-Feb-17 00:33N 30°21' E 121°50'1110.5
2015-Feb-16 23:28N 30°09' E 121°52'1011.2
2015-Feb-16 22:33N 30°00' E 121°58'9 9.2
2015-Feb-16 21:33N 29°54' E 122°05'0 0.3
2015-Feb-16 20:16N 29°54' E 122°05'0 0.0
2015-Feb-16 19:19N 29°54' E 122°05'0 0.0
2015-Feb-16 18:13N 29°54' E 122°05'0 0.0
2015-Feb-16 17:31N 29°54' E 122°05'0 0.0
2015-Feb-16 16:25N 29°54' E 122°05'0 0.0
2015-Feb-16 15:25N 29°54' E 122°05'0 0.0
2015-Feb-16 14:28N 29°54' E 122°05'0 0.0
2015-Feb-16 13:33N 29°54' E 122°05'0 0.0
2015-Feb-16 12:33N 29°54' E 122°05'1 0.4
2015-Feb-16 10:33N 29°54' E 122°05'7 6.1
2015-Feb-16 09:27N 29°55' E 122°13'0 0.1
2015-Feb-16 08:33N 29°55' E 122°13'0 0.0
2015-Feb-16 06:21N 29°55' E 122°13'0 0.0
2015-Feb-16 05:12N 29°55' E 122°13'0 0.1
2015-Feb-16 03:33N 29°55' E 122°13'5 4.7
2015-Feb-16 02:33N 29°50' E 122°13'9 9.3
2015-Feb-16 01:33N 29°44' E 122°20'5 3.2
2015-Feb-16 00:05N 29°39' E 122°21'0 0.2
2015-Feb-15 23:29N 29°39' E 122°21'0 0.1
2015-Feb-15 22:33N 29°39' E 122°21'9 8.8
2015-Feb-15 21:30N 29°30' E 122°22'  
Track history (hours):
 
Tides and Currents Weather Stations Pressure Air Temp Water Temp Dewpoint Dewpoint Depression Visibility Wind Speed Wind Dir Waves Ship Positions

An Run Da 2

Last reported at 2015-Feb-22 09:30 UTC. Time now 2015-Feb-27 22:48 UTC.
Position N 32°05' E 119°55'.

Length 147 m; draft 7.9 m.

Type: Cargo ship. MMSI: 413360230.

Date/timePositionNaut miles runAvg speedWind from/ knotsBaromVisibWave heightAir tempDewpointWater temp
2015-Feb-22 09:30N 32°05' E 119°55'8 8.5
2015-Feb-22 08:32N 31°58' E 120°01'18 2.6
2015-Feb-22 01:24N 32°00' E 120°23'0 0.1
2015-Feb-22 00:30N 32°00' E 120°23'0 0.1
2015-Feb-21 23:30N 32°00' E 120°23'0 0.0
2015-Feb-21 22:28N 32°00' E 120°23'0 0.0
2015-Feb-21 21:28N 32°00' E 120°23'0 0.0
2015-Feb-21 20:33N 32°00' E 120°23'0 0.2
2015-Feb-21 19:30N 32°00' E 120°23'0 0.0
2015-Feb-21 18:34N 32°00' E 120°23'0 0.0
2015-Feb-21 17:27N 32°00' E 120°23'0 0.0
2015-Feb-21 16:27N 32°00' E 120°23'0 0.0
2015-Feb-21 15:33N 32°00' E 120°23'0 0.0
2015-Feb-21 14:28N 32°00' E 120°23'0 0.0
2015-Feb-21 13:33N 32°00' E 120°23'0 0.0
2015-Feb-21 12:31N 32°00' E 120°23'0 0.2
2015-Feb-21 11:31N 32°00' E 120°23'0 0.0
2015-Feb-21 10:31N 32°00' E 120°23'0 0.0
2015-Feb-21 09:31N 32°00' E 120°23'0 0.0
2015-Feb-21 08:31N 32°00' E 120°23'0 0.2
2015-Feb-21 07:25N 32°00' E 120°23'0 0.0
2015-Feb-21 06:13N 32°00' E 120°23'0 0.0
2015-Feb-21 05:19N 32°00' E 120°23'0 0.0
2015-Feb-21 04:25N 32°00' E 120°23'0 0.1
2015-Feb-21 03:33N 32°00' E 120°23'3 3.5
2015-Feb-21 02:33N 32°03' E 120°26'6 6.3
2015-Feb-21 01:33N 32°03' E 120°33'7 6.6
2015-Feb-21 00:33N 31°60' E 120°40'8 7.7
2015-Feb-20 23:33N 32°00' E 120°49'9 8.5
2015-Feb-20 22:32N 31°53' E 120°54'7 7.5
2015-Feb-20 21:33N 31°47' E 120°59'9 9.2
2015-Feb-20 20:33N 31°42' E 121°08'1111.0
2015-Feb-20 19:33N 31°35' E 121°18'1111.1
2015-Feb-20 18:33N 31°28' E 121°28'10 9.8
2015-Feb-20 17:33N 31°22' E 121°37'1010.3
2015-Feb-20 16:33N 31°18' E 121°48'1111.3
2015-Feb-20 15:33N 31°15' E 122°01'9 9.2
2015-Feb-20 14:33N 31°11' E 122°11'6 5.3
2015-Feb-20 13:28N 31°08' E 122°16'0 0.1
2015-Feb-20 12:19N 31°08' E 122°17'3 4.5
2015-Feb-20 11:33N 31°06' E 122°20'11 4.9
2015-Feb-20 09:20N 31°14' E 122°28'0 0.0
2015-Feb-20 04:15N 31°15' E 122°28'0 0.0
2015-Feb-19 15:03N 31°15' E 122°28'0 0.0
2015-Feb-19 14:06N 31°15' E 122°28'0 0.0
2015-Feb-19 03:15N 31°15' E 122°28'0 0.0
2015-Feb-18 17:15N 31°15' E 122°29'0 0.0
2015-Feb-18 05:15N 31°15' E 122°29'0 0.1
2015-Feb-18 02:30N 31°15' E 122°28'0 0.1
2015-Feb-17 22:24N 31°14' E 122°28'0 0.1
2015-Feb-17 21:27N 31°14' E 122°28'0 0.0
2015-Feb-17 20:33N 31°14' E 122°28'0 0.0
2015-Feb-17 19:27N 31°14' E 122°29'0 0.1
2015-Feb-17 17:27N 31°15' E 122°29'0 0.1
2015-Feb-17 16:24N 31°15' E 122°28'0 0.0
2015-Feb-17 13:30N 31°15' E 122°28'0 0.0
2015-Feb-17 12:33N 31°15' E 122°28'0 0.1
2015-Feb-17 10:21N 31°14' E 122°28'0 0.1
2015-Feb-17 09:19N 31°15' E 122°28'11 6.3
2015-Feb-17 07:29N 31°04' E 122°33'15 7.7
2015-Feb-17 05:33N 30°51' E 122°24'10 9.9
2015-Feb-17 04:34N 30°43' E 122°17'10 9.7
2015-Feb-17 03:33N 30°34' E 122°12'9 8.8
2015-Feb-17 02:33N 30°29' E 122°05'8 7.7
2015-Feb-17 01:31N 30°25' E 121°57'7 7.4
2015-Feb-17 00:33N 30°21' E 121°50'1110.5
2015-Feb-16 23:28N 30°09' E 121°52'1011.2
2015-Feb-16 22:33N 30°00' E 121°58'9 9.2
2015-Feb-16 21:33N 29°54' E 122°05'0 0.3
2015-Feb-16 20:16N 29°54' E 122°05'0 0.0
2015-Feb-16 19:19N 29°54' E 122°05'0 0.0
2015-Feb-16 18:13N 29°54' E 122°05'0 0.0
2015-Feb-16 17:31N 29°54' E 122°05'0 0.0
2015-Feb-16 16:25N 29°54' E 122°05'0 0.0
2015-Feb-16 15:25N 29°54' E 122°05'0 0.0
2015-Feb-16 14:28N 29°54' E 122°05'0 0.0
2015-Feb-16 13:33N 29°54' E 122°05'0 0.0
2015-Feb-16 12:33N 29°54' E 122°05'1 0.4
2015-Feb-16 10:33N 29°54' E 122°05'7 6.1
2015-Feb-16 09:27N 29°55' E 122°13'0 0.1
2015-Feb-16 08:33N 29°55' E 122°13'0 0.0
2015-Feb-16 06:21N 29°55' E 122°13'0 0.0
2015-Feb-16 05:12N 29°55' E 122°13'0 0.1
2015-Feb-16 03:33N 29°55' E 122°13'5 4.7
2015-Feb-16 02:33N 29°50' E 122°13'9 9.3
2015-Feb-16 01:33N 29°44' E 122°20'5 3.2
2015-Feb-16 00:05N 29°39' E 122°21'0 0.2
2015-Feb-15 23:29N 29°39' E 122°21'0 0.1
2015-Feb-15 22:33N 29°39' E 122°21'9 8.8
2015-Feb-15 21:30N 29°30' E 122°22'  

Dump ship's entire track history